Time;durP1;ratioP1;P1;durP2;ratioP2;P2;SDS_P1;SDS_P2;PMS_P1;PMS_P2;Temp;Humidity;BMP_temperature;BMP_pressure;BME280_temperature;BME280_humidity;BME280_pressure;Samples;Min_cycle;Max_cycle;Signal;HPM_P1;HPM_P2
2022/12/11 00:02:05;;;;;;;15.93;8.90;;;3.30;64.00;;;;;;2374334;56;21047;-61
2022/12/11 00:04:32;;;;;;;16.08;8.50;;;3.30;63.90;;;;;;2374305;56;21094;-61
2022/12/11 00:06:59;;;;;;;13.18;7.43;;;3.30;64.00;;;;;;2373877;56;21106;-61
2022/12/11 00:09:27;;;;;;;13.75;7.68;;;3.30;64.10;;;;;;2374083;56;21154;-61
2022/12/11 00:11:54;;;;;;;14.50;7.75;;;3.20;63.70;;;;;;2373770;56;21038;-61
2022/12/11 00:14:21;;;;;;;12.68;7.12;;;3.20;63.60;;;;;;2372309;56;21094;-60
2022/12/11 00:16:48;;;;;;;14.32;7.12;;;3.20;63.00;;;;;;2372951;56;21153;-61
2022/12/11 00:19:15;;;;;;;13.65;7.82;;;3.10;62.70;;;;;;2373628;56;21050;-61
2022/12/11 00:21:43;;;;;;;16.20;8.40;;;3.00;62.40;;;;;;2373645;56;21063;-61
2022/12/11 00:24:10;;;;;;;12.07;6.93;;;3.00;61.60;;;;;;2372740;56;21534;-61
2022/12/11 00:26:37;;;;;;;11.57;7.28;;;2.90;61.60;;;;;;2373762;56;21353;-61
2022/12/11 00:29:04;;;;;;;9.90;6.50;;;2.80;62.60;;;;;;2372897;56;21590;-61
2022/12/11 00:31:31;;;;;;;11.50;6.93;;;2.80;62.70;;;;;;2373026;56;21349;-61
2022/12/11 00:34:00;;;;;;;12.70;7.47;;;2.80;62.80;;;;;;2373589;56;21071;-61
2022/12/11 00:36:27;;;;;;;13.20;7.35;;;2.90;62.90;;;;;;2373776;56;21614;-61
2022/12/11 00:38:55;;;;;;;10.48;6.35;;;2.90;62.70;;;;;;2373819;56;21055;-61
2022/12/11 00:41:22;;;;;;;10.35;6.65;;;2.90;62.60;;;;;;2374264;56;21134;-58
2022/12/11 00:43:49;;;;;;;10.75;6.40;;;3.00;62.80;;;;;;2373559;56;21685;-61
2022/12/11 00:46:17;;;;;;;13.30;7.65;;;3.00;62.80;;;;;;2373772;56;21585;-61
2022/12/11 00:48:45;;;;;;;14.18;7.07;;;3.00;62.70;;;;;;2372904;56;21126;-61
2022/12/11 00:51:12;;;;;;;12.95;7.37;;;3.00;62.30;;;;;;2373228;56;21645;-61
2022/12/11 00:53:39;;;;;;;11.20;6.95;;;3.00;62.20;;;;;;2373587;56;21023;-61
2022/12/11 00:56:13;;;;;;;11.68;7.07;;;2.90;62.10;;;;;;2373922;56;21563;-61
2022/12/11 00:58:40;;;;;;;12.88;7.43;;;2.90;61.80;;;;;;2373287;56;21082;-61
2022/12/11 01:01:10;;;;;;;10.65;6.18;;;2.90;62.50;;;;;;2373454;56;21185;-61
2022/12/11 01:03:37;;;;;;;12.73;7.07;;;2.90;61.90;;;;;;2442880;54;21125;-50
2022/12/11 01:06:06;;;;;;;11.02;6.85;;;2.90;62.00;;;;;;2300548;58;21182;-49
2022/12/11 01:08:33;;;;;;;11.12;6.80;;;2.90;61.90;;;;;;2302534;58;21058;-48
2022/12/11 01:11:06;;;;;;;14.73;7.75;;;2.90;61.70;;;;;;2302849;58;21046;-54
2022/12/11 01:13:33;;;;;;;13.98;7.25;;;2.90;61.80;;;;;;2300898;58;21150;-49
2022/12/11 01:16:07;;;;;;;13.35;7.32;;;3.00;62.00;;;;;;2300070;58;21625;-48
2022/12/11 01:18:34;;;;;;;15.43;7.72;;;3.00;62.10;;;;;;2299323;58;21578;-53
2022/12/11 01:21:06;;;;;;;12.10;6.40;;;3.00;62.00;;;;;;2300015;58;21070;-46
2022/12/11 01:23:33;;;;;;;10.93;6.43;;;2.90;61.60;;;;;;2299579;58;21581;-46
2022/12/11 01:26:06;;;;;;;11.50;6.80;;;2.90;61.60;;;;;;2299549;58;21065;-52
2022/12/11 01:28:33;;;;;;;;;;;2.90;61.60;;;;;;2303690;58;21058;-48
2022/12/11 01:31:00;;;;;;;11.27;6.40;;;3.00;62.00;;;;;;2300475;58;20402;-48
2022/12/11 01:33:28;;;;;;;12.13;6.95;;;3.00;61.60;;;;;;2300709;58;22141;-47
2022/12/11 01:35:55;;;;;;;10.80;6.45;;;3.00;61.90;;;;;;2299206;58;21665;-49
2022/12/11 01:38:23;;;;;;;15.02;8.02;;;3.00;62.20;;;;;;2299755;58;21090;-49
2022/12/11 01:40:51;;;;;;;14.95;7.65;;;3.00;62.40;;;;;;2299962;58;21161;-48
2022/12/11 01:43:18;;;;;;;12.80;7.90;;;3.00;62.70;;;;;;2300117;58;21122;-48
2022/12/11 01:45:48;;;;;;;12.55;7.25;;;3.00;62.80;;;;;;2300060;58;21066;-50
2022/12/11 01:48:18;;;;;;;13.77;8.90;;;3.00;62.90;;;;;;2300333;58;21550;-49
2022/12/11 01:53:29;;;;;;;11.90;7.28;;;3.00;63.20;;;;;;2342806;57;22186;-48
2022/12/11 01:55:58;;;;;;;14.77;8.23;;;3.00;63.40;;;;;;2346235;57;21549;-48
2022/12/11 01:58:29;;;;;;;13.23;7.50;;;3.00;63.40;;;;;;2347768;57;21037;-47
2022/12/11 02:00:57;;;;;;;15.50;8.23;;;2.90;63.40;;;;;;2347633;57;21022;-45
2022/12/11 02:03:24;;;;;;;14.32;7.30;;;2.90;63.50;;;;;;2347614;57;21097;-46
2022/12/11 02:05:52;;;;;;;13.98;7.78;;;2.90;63.40;;;;;;2346553;57;21038;-48
2022/12/11 02:08:19;;;;;;;16.58;7.95;;;2.90;63.30;;;;;;2345428;57;21049;-49
2022/12/11 02:11:04;;;;;;;12.70;7.90;;;2.80;63.50;;;;;;2345973;57;21593;-46
2022/12/11 02:13:38;;;;;;;13.75;7.72;;;2.80;64.50;;;;;;2346123;57;21616;-50
2022/12/11 02:16:16;;;;;;;14.18;7.82;;;2.80;63.90;;;;;;2346153;57;21108;-48
2022/12/11 02:18:48;;;;;;;16.55;7.70;;;2.90;64.00;;;;;;2346771;57;21104;-49
2022/12/11 02:21:19;;;;;;;13.77;7.97;;;2.90;64.10;;;;;;2346544;57;21547;-52
2022/12/11 02:27:10;;;;;;;13.68;7.93;;;2.90;64.20;;;;;;2353675;57;22137;-47
2022/12/11 02:29:44;;;;;;;14.77;8.48;;;2.90;64.30;;;;;;2345230;57;21390;-52
2022/12/11 02:32:16;;;;;;;15.63;8.45;;;2.90;64.20;;;;;;2346518;57;21533;-49
2022/12/11 02:34:48;;;;;;;15.00;8.85;;;2.90;64.20;;;;;;2372071;56;21579;-47
2022/12/11 02:37:20;;;;;;;14.93;7.70;;;2.90;64.10;;;;;;2372481;56;21605;-51
2022/12/11 02:39:51;;;;;;;16.15;9.02;;;2.90;64.10;;;;;;2372922;56;22667;-49
2022/12/11 02:42:19;;;;;;;15.45;8.40;;;2.90;64.00;;;;;;2372842;56;21110;-50
2022/12/11 02:44:47;;;;;;;17.27;8.57;;;2.80;64.10;;;;;;2375272;56;21582;-48
2022/12/11 02:47:18;;;;;;;16.70;9.05;;;2.80;64.30;;;;;;2375283;56;21358;-47
2022/12/11 02:49:48;;;;;;;16.12;9.15;;;2.80;64.40;;;;;;2375675;56;21038;-46
2022/12/11 02:52:19;;;;;;;17.90;9.82;;;2.80;64.40;;;;;;2375254;56;21460;-47
2022/12/11 02:54:48;;;;;;;14.40;8.05;;;2.80;64.40;;;;;;2374772;56;21118;-50
2022/12/11 02:59:51;;;;;;;18.00;11.55;;;2.80;64.50;;;;;;2335129;57;38742;-44
2022/12/11 03:02:18;;;;;;;19.65;10.75;;;2.50;66.40;;;;;;2346031;57;21053;-48
2022/12/11 03:04:47;;;;;;;16.45;9.80;;;2.70;66.20;;;;;;2344858;57;21624;-49
2022/12/11 03:07:18;;;;;;;19.10;9.30;;;2.80;65.50;;;;;;2344667;57;21671;-51
2022/12/11 03:09:46;;;;;;;17.23;9.18;;;2.80;65.20;;;;;;2345351;57;21073;-48
2022/12/11 03:12:16;;;;;;;17.92;9.50;;;2.80;64.90;;;;;;2345189;57;21050;-47
2022/12/11 03:14:44;;;;;;;19.80;10.30;;;2.80;64.90;;;;;;2344458;57;21086;-48
2022/12/11 03:17:16;;;;;;;19.40;9.75;;;2.80;64.80;;;;;;2344706;57;21585;-50
2022/12/11 03:19:52;;;;;;;15.98;8.63;;;2.80;64.60;;;;;;2345792;57;21037;-46
2022/12/11 03:22:26;;;;;;;17.80;9.52;;;2.80;64.70;;;;;;2345288;57;21105;-48
2022/12/11 03:24:59;;;;;;;19.25;9.27;;;2.80;64.80;;;;;;2344283;57;22060;-52
2022/12/11 03:27:33;;;;;;;18.27;10.00;;;2.70;64.70;;;;;;2344738;57;21057;-51
2022/12/11 03:30:06;;;;;;;16.50;8.63;;;2.70;64.40;;;;;;2344499;57;21126;-54
2022/12/11 03:32:38;;;;;;;18.87;9.77;;;2.70;64.40;;;;;;2346015;57;21090;-50
2022/12/11 03:35:12;;;;;;;18.65;10.38;;;2.70;64.50;;;;;;2346023;57;21030;-50
2022/12/11 03:37:41;;;;;;;18.65;9.30;;;2.70;64.40;;;;;;2346485;57;21033;-46
2022/12/11 03:40:14;;;;;;;15.45;9.27;;;2.60;64.20;;;;;;2346404;57;21573;-49
2022/12/11 03:42:45;;;;;;;17.12;8.80;;;2.60;64.40;;;;;;2345930;57;21029;-45
2022/12/11 03:45:15;;;;;;;15.00;8.13;;;2.60;64.50;;;;;;2345004;57;21046;-47
2022/12/11 03:47:44;;;;;;;18.08;9.68;;;2.50;64.30;;;;;;2344646;57;21126;-49
2022/12/11 03:50:15;;;;;;;16.95;9.13;;;2.50;64.20;;;;;;2344524;57;21142;-52
2022/12/11 03:52:44;;;;;;;18.08;9.13;;;2.50;64.10;;;;;;2344551;57;21589;-45
2022/12/11 03:55:14;;;;;;;18.12;9.30;;;2.50;64.20;;;;;;2344949;57;22253;-52
2022/12/11 03:57:42;;;;;;;15.52;8.75;;;2.40;64.10;;;;;;2345473;57;21653;-51
2022/12/11 04:00:14;;;;;;;14.87;8.40;;;2.40;64.30;;;;;;2343053;57;21086;-51
2022/12/11 04:02:42;;;;;;;17.10;8.93;;;2.30;64.30;;;;;;2343270;57;21533;-49
2022/12/11 04:05:11;;;;;;;16.62;9.15;;;2.40;64.50;;;;;;2344715;57;21633;-52
2022/12/11 04:07:38;;;;;;;15.75;8.48;;;2.30;64.40;;;;;;2345006;57;21549;-50
2022/12/11 04:10:07;;;;;;;17.08;8.90;;;2.30;64.30;;;;;;2343825;57;21030;-47
2022/12/11 04:12:34;;;;;;;14.55;8.43;;;2.30;64.10;;;;;;2342974;57;21042;-46
2022/12/11 04:15:01;;;;;;;16.77;8.43;;;2.20;63.90;;;;;;2343763;57;21117;-47
2022/12/11 04:28:40;;;;;;;19.12;9.95;;;2.00;63.40;;;;;;2326097;57;22127;-45
2022/12/11 04:31:11;;;;;;;18.27;10.50;;;1.90;63.30;;;;;;2317577;58;21069;-48
2022/12/11 04:33:38;;;;;;;16.90;9.20;;;1.80;63.30;;;;;;2331365;57;21644;-52
2022/12/11 04:36:07;;;;;;;16.45;8.98;;;1.80;63.40;;;;;;2344040;57;21125;-52
2022/12/11 04:38:35;;;;;;;19.37;10.73;;;1.80;63.60;;;;;;2344976;57;21149;-53
2022/12/11 04:41:05;;;;;;;18.67;9.90;;;1.70;63.60;;;;;;2343628;57;22144;-47
2022/12/11 04:43:32;;;;;;;19.15;10.10;;;1.70;63.60;;;;;;2344466;57;21204;-52
2022/12/11 04:46:03;;;;;;;21.62;10.35;;;1.70;63.70;;;;;;2344662;57;21073;-49
2022/12/11 04:48:31;;;;;;;25.62;12.13;;;1.60;63.80;;;;;;2344751;57;21062;-50
2022/12/11 04:50:58;;;;;;;22.67;11.93;;;1.50;63.90;;;;;;2344248;57;21601;-54
2022/12/11 04:53:26;;;;;;;15.93;9.38;;;1.50;64.10;;;;;;2344868;57;21054;-45
2022/12/11 04:55:54;;;;;;;22.85;10.38;;;1.40;64.40;;;;;;2344153;57;21066;-47
2022/12/11 04:58:22;;;;;;;23.42;11.93;;;1.30;64.60;;;;;;2344705;57;21588;-47
2022/12/11 05:00:49;;;;;;;18.20;10.00;;;1.30;65.60;;;;;;2344664;57;21608;-47
2022/12/11 05:03:16;;;;;;;23.73;10.48;;;1.30;64.80;;;;;;2344397;57;21676;-49
2022/12/11 05:05:49;;;;;;;19.77;10.25;;;1.30;64.60;;;;;;2344954;57;21541;-49
2022/12/11 05:08:17;;;;;;;19.10;10.25;;;1.20;64.20;;;;;;2344496;57;21101;-47
2022/12/11 05:10:45;;;;;;;16.08;9.00;;;1.20;64.40;;;;;;2343435;57;21147;-51
2022/12/11 05:13:12;;;;;;;20.88;10.77;;;1.20;64.40;;;;;;2346168;57;21577;-48
2022/12/11 05:15:39;;;;;;;20.37;10.52;;;1.20;64.40;;;;;;2346404;57;21041;-49
2022/12/11 05:18:06;;;;;;;18.65;9.23;;;1.10;64.30;;;;;;2345915;57;21037;-48
2022/12/11 05:20:33;;;;;;;24.30;10.88;;;1.10;64.30;;;;;;2346239;57;21525;-46
2022/12/11 05:23:00;;;;;;;21.30;10.48;;;1.10;64.60;;;;;;2346374;57;21189;-48
2022/12/11 05:25:27;;;;;;;16.42;9.52;;;1.00;64.50;;;;;;2345412;57;21535;-46
2022/12/11 05:27:55;;;;;;;21.83;11.10;;;1.00;64.40;;;;;;2343911;57;21108;-51
2022/12/11 05:30:22;;;;;;;20.12;10.55;;;1.00;64.40;;;;;;2344686;57;21058;-49
2022/12/11 05:32:49;;;;;;;20.92;10.23;;;0.90;64.60;;;;;;2344544;57;21216;-48
2022/12/11 05:35:16;;;;;;;24.37;11.05;;;0.90;64.70;;;;;;2344783;57;21050;-52
2022/12/11 05:37:43;;;;;;;22.87;11.32;;;0.90;64.70;;;;;;2344716;57;21057;-50
2022/12/11 05:40:12;;;;;;;22.13;11.02;;;0.90;64.40;;;;;;2343776;57;21121;-49
2022/12/11 05:45:15;;;;;;;19.98;11.10;;;0.80;64.40;;;;;;2354801;57;22161;-46
2022/12/11 05:47:42;;;;;;;23.23;10.73;;;0.80;64.40;;;;;;2346686;57;21026;-46
2022/12/11 05:50:10;;;;;;;20.70;9.77;;;0.70;64.20;;;;;;2345908;57;21105;-50
2022/12/11 05:52:37;;;;;;;21.67;10.63;;;0.70;64.20;;;;;;2346149;57;21037;-54
2022/12/11 05:55:06;;;;;;;23.08;11.30;;;0.70;64.40;;;;;;2343677;57;21066;-50
2022/12/11 05:57:33;;;;;;;19.08;10.07;;;0.60;64.50;;;;;;2344781;57;21053;-48
2022/12/11 06:00:00;;;;;;;24.27;10.60;;;0.60;64.50;;;;;;2344479;57;22197;-51
2022/12/11 06:02:27;;;;;;;21.15;9.80;;;0.60;64.60;;;;;;2344919;57;21077;-50
2022/12/11 06:04:54;;;;;;;21.40;10.75;;;0.50;64.70;;;;;;2344114;57;21046;-52
2022/12/11 06:07:22;;;;;;;18.98;9.73;;;0.40;64.70;;;;;;2344108;57;21097;-50
2022/12/11 06:09:49;;;;;;;19.87;10.25;;;0.40;64.80;;;;;;2344575;57;21058;-48
2022/12/11 06:14:52;;;;;;;19.95;10.73;;;0.20;64.90;;;;;;2353918;57;22066;-47
2022/12/11 06:17:19;;;;;;;18.10;9.48;;;0.20;65.30;;;;;;2345793;57;21121;-48
2022/12/11 06:19:46;;;;;;;21.00;9.45;;;0.20;65.40;;;;;;2346145;57;21522;-51
2022/12/11 06:22:13;;;;;;;20.80;10.27;;;0.20;65.30;;;;;;2346166;57;21054;-49
2022/12/11 06:24:41;;;;;;;18.83;9.48;;;0.10;65.20;;;;;;2345045;57;21069;-46
2022/12/11 06:27:08;;;;;;;19.23;10.32;;;0.10;65.10;;;;;;2343860;57;21030;-51
2022/12/11 06:29:35;;;;;;;26.42;11.38;;;0.00;65.30;;;;;;2343708;57;21050;-48
2022/12/11 06:32:02;;;;;;;22.60;11.23;;;0.00;65.30;;;;;;2344390;57;21050;-54
2022/12/11 06:34:29;;;;;;;19.83;9.55;;;-0.10;65.30;;;;;;2345036;57;21117;-46
2022/12/11 06:36:56;;;;;;;25.48;10.80;;;-0.10;65.40;;;;;;2345222;57;21126;-47
2022/12/11 06:39:24;;;;;;;23.83;10.73;;;-0.10;65.40;;;;;;2345165;57;21541;-46
2022/12/11 06:41:51;;;;;;;22.33;11.07;;;-0.20;65.50;;;;;;2344627;57;21132;-48
2022/12/11 06:44:18;;;;;;;22.17;11.07;;;-0.20;65.70;;;;;;2344714;57;21042;-47
2022/12/11 06:49:22;;;;;;;18.75;10.00;;;-0.30;65.90;;;;;;2354225;57;22104;-48
2022/12/11 06:51:49;;;;;;;22.33;11.12;;;-0.30;66.00;;;;;;2345938;57;21062;-49
2022/12/11 06:54:16;;;;;;;28.58;12.90;;;-0.30;66.20;;;;;;2345133;57;21113;-46
2022/12/11 06:56:43;;;;;;;26.10;11.23;;;-0.40;66.10;;;;;;2344998;57;21120;-46
2022/12/11 06:59:12;;;;;;;22.20;11.38;;;-0.40;65.90;;;;;;2345070;57;21125;-47
2022/12/11 07:01:39;;;;;;;21.10;10.75;;;-0.40;65.90;;;;;;2346133;57;21014;-46
2022/12/11 07:04:08;;;;;;;25.50;10.77;;;-0.40;66.00;;;;;;2361646;52;21098;-53
2022/12/11 07:06:35;;;;;;;21.00;10.63;;;-0.40;66.20;;;;;;2377466;56;21090;-53
2022/12/11 07:09:04;;;;;;;21.42;10.85;;;-0.40;66.40;;;;;;2377899;56;21042;-51
2022/12/11 07:11:31;;;;;;;22.37;10.82;;;-0.40;66.50;;;;;;2377000;56;21538;-50
2022/12/11 07:13:59;;;;;;;19.92;10.63;;;-0.40;66.50;;;;;;2376239;56;22137;-51
2022/12/11 07:16:27;;;;;;;22.25;11.10;;;-0.50;66.30;;;;;;2375260;56;22149;-55
2022/12/11 07:21:29;;;;;;;23.02;13.00;;;-0.50;66.00;;;;;;2334678;57;28473;-53
2022/12/11 07:23:56;;;;;;;25.50;11.57;;;-0.90;66.40;;;;;;2346200;57;21537;-52
2022/12/11 07:26:24;;;;;;;23.15;11.52;;;-0.70;66.60;;;;;;2345088;57;21529;-51
2022/12/11 07:28:51;;;;;;;21.37;11.02;;;-0.60;66.20;;;;;;2346195;57;21026;-53
2022/12/11 07:31:19;;;;;;;23.23;11.20;;;-0.60;65.80;;;;;;2345446;57;21609;-49
2022/12/11 07:33:47;;;;;;;21.60;10.68;;;-0.60;65.70;;;;;;2345789;57;21528;-48
2022/12/11 07:38:51;;;;;;;20.83;10.38;;;-0.70;65.50;;;;;;2355379;57;22042;-49
2022/12/11 07:41:19;;;;;;;21.25;10.88;;;-0.60;65.60;;;;;;2347145;57;21184;-51
2022/12/11 07:43:46;;;;;;;21.52;11.73;;;-0.70;65.70;;;;;;2346105;57;21645;-49
2022/12/11 07:46:15;;;;;;;23.83;11.00;;;-0.60;66.10;;;;;;2347088;57;21086;-53
2022/12/11 07:48:45;;;;;;;22.25;10.98;;;-0.60;66.40;;;;;;2346985;57;21014;-48
2022/12/11 07:51:14;;;;;;;22.05;11.00;;;-0.60;66.50;;;;;;2346498;57;21022;-50
2022/12/11 07:53:41;;;;;;;22.77;11.00;;;-0.60;66.70;;;;;;2346387;57;21018;-48
2022/12/11 07:56:09;;;;;;;20.67;11.55;;;-0.50;66.90;;;;;;2345593;57;21022;-49
2022/12/11 07:58:37;;;;;;;22.10;11.40;;;-0.50;66.90;;;;;;2344996;57;21106;-53
2022/12/11 08:01:05;;;;;;;25.12;12.07;;;-0.50;66.70;;;;;;2345571;57;21050;-48
2022/12/11 08:03:32;;;;;;;23.95;11.20;;;-0.50;66.60;;;;;;2345289;57;21669;-48
2022/12/11 08:05:59;;;;;;;23.80;11.73;;;-0.40;66.50;;;;;;2345622;57;21288;-48
2022/12/11 08:08:27;;;;;;;23.10;11.55;;;-0.40;66.60;;;;;;2345469;57;21053;-50
2022/12/11 08:13:30;;;;;;;22.40;10.77;;;-0.40;66.40;;;;;;2317331;57;22137;-51
2022/12/11 08:15:58;;;;;;;23.48;11.82;;;-0.40;66.30;;;;;;2319359;58;21048;-50
2022/12/11 08:18:25;;;;;;;23.05;10.95;;;-0.30;66.30;;;;;;2318994;58;21551;-51
2022/12/11 08:20:52;;;;;;;26.77;13.73;;;-0.30;66.20;;;;;;2318297;58;21311;-49
2022/12/11 08:23:19;;;;;;;45.17;21.37;;;-0.30;66.20;;;;;;2318513;58;21116;-51
2022/12/11 08:25:46;;;;;;;58.97;25.12;;;-0.30;66.00;;;;;;2317794;58;21115;-50
2022/12/11 08:28:13;;;;;;;54.65;24.12;;;-0.30;66.10;;;;;;2316182;58;21060;-52
2022/12/11 08:30:40;;;;;;;48.87;22.02;;;-0.20;66.00;;;;;;2317073;58;21675;-50
2022/12/11 08:33:08;;;;;;;44.97;19.58;;;-0.20;65.80;;;;;;2316813;58;21132;-49
2022/12/11 08:35:38;;;;;;;47.40;19.30;;;-0.20;65.80;;;;;;2317232;58;21132;-49
2022/12/11 08:38:06;;;;;;;39.22;20.58;;;-0.20;66.60;;;;;;2319491;58;21518;-49
2022/12/11 08:40:33;;;;;;;43.55;21.52;;;-0.20;66.10;;;;;;2317910;58;21016;-49
2022/12/11 08:43:00;;;;;;;41.95;22.30;;;-0.20;66.30;;;;;;2318125;58;21032;-51
2022/12/11 08:45:27;;;;;;;59.20;29.08;;;-0.20;66.20;;;;;;2318249;58;21076;-49
2022/12/11 08:47:54;;;;;;;50.95;24.80;;;-0.20;66.30;;;;;;2318496;58;21091;-49
2022/12/11 08:50:21;;;;;;;48.90;22.70;;;-0.10;66.30;;;;;;2317578;58;21103;-50
2022/12/11 08:52:48;;;;;;;44.95;20.85;;;-0.10;66.50;;;;;;2316282;58;21056;-49
2022/12/11 08:55:16;;;;;;;38.83;20.88;;;-0.10;66.40;;;;;;2317243;58;21053;-49
2022/12/11 08:57:43;;;;;;;39.28;20.90;;;-0.10;66.30;;;;;;2317621;58;21048;-49
2022/12/11 09:00:14;;;;;;;44.72;22.15;;;-0.10;66.30;;;;;;2317030;58;21041;-51
2022/12/11 09:05:16;;;;;;;52.05;30.73;;;-0.10;66.50;;;;;;2337262;57;27813;-51
2022/12/11 09:07:44;;;;;;;43.35;22.73;;;-0.40;67.70;;;;;;2375173;56;21035;-51
2022/12/11 09:10:11;;;;;;;41.13;20.77;;;-0.10;67.90;;;;;;2374922;56;21221;-54
2022/12/11 09:12:38;;;;;;;40.92;21.62;;;0.00;67.50;;;;;;2375821;56;21633;-48
2022/12/11 09:15:08;;;;;;;37.72;20.20;;;0.00;67.10;;;;;;2372800;56;21131;-49
2022/12/11 09:17:35;;;;;;;39.33;19.65;;;0.00;67.20;;;;;;2373986;56;21021;-48
2022/12/11 09:20:02;;;;;;;40.00;20.35;;;0.10;67.40;;;;;;2374758;56;21543;-51
2022/12/11 09:22:32;;;;;;;42.03;20.30;;;0.00;67.60;;;;;;2374681;56;21712;-49
2022/12/11 09:24:59;;;;;;;39.33;19.27;;;0.00;67.60;;;;;;2374512;56;21540;-52
2022/12/11 09:27:26;;;;;;;38.35;17.30;;;0.00;67.90;;;;;;2374474;56;21548;-53
2022/12/11 09:29:53;;;;;;;29.98;15.68;;;0.10;68.20;;;;;;2374736;56;21767;-48
2022/12/11 09:32:20;;;;;;;31.02;15.25;;;0.10;68.60;;;;;;2374027;56;21301;-51
2022/12/11 09:34:50;;;;;;;32.95;15.70;;;0.10;68.70;;;;;;2374386;56;21092;-50
2022/12/11 09:37:17;;;;;;;27.42;14.82;;;0.10;68.60;;;;;;2375345;56;21123;-51
2022/12/11 09:39:45;;;;;;;29.35;14.98;;;0.20;68.80;;;;;;2376327;56;21091;-52
2022/12/11 09:42:17;;;;;;;28.42;14.52;;;0.20;68.90;;;;;;2376141;56;21024;-48
2022/12/11 09:44:49;;;;;;;28.35;13.77;;;0.20;69.00;;;;;;2374436;56;21062;-48
2022/12/11 09:47:26;;;;;;;27.92;14.80;;;0.20;69.10;;;;;;2374685;56;21064;-54
2022/12/11 09:50:02;;;;;;;26.42;13.70;;;0.20;69.20;;;;;;2374015;56;21099;-48
2022/12/11 09:52:35;;;;;;;25.83;12.65;;;0.20;69.20;;;;;;2374477;56;21044;-50
2022/12/11 09:55:12;;;;;;;24.05;12.52;;;0.20;69.40;;;;;;2373952;56;21610;-51
2022/12/11 09:57:47;;;;;;;23.70;12.98;;;0.30;69.70;;;;;;2375239;56;21068;-49
2022/12/11 10:00:21;;;;;;;24.35;12.93;;;0.40;69.80;;;;;;2375573;56;21104;-48
2022/12/11 10:03:01;;;;;;;26.30;13.25;;;0.40;70.60;;;;;;2374193;56;21057;-52
2022/12/11 10:05:36;;;;;;;25.48;13.68;;;0.50;69.90;;;;;;2375162;56;21638;-51
2022/12/11 10:08:11;;;;;;;24.95;13.98;;;0.50;69.90;;;;;;2375591;56;21095;-50
2022/12/11 10:10:42;;;;;;;23.38;13.05;;;0.50;69.80;;;;;;2375717;56;21056;-52
2022/12/11 10:13:25;;;;;;;27.02;14.13;;;0.60;69.70;;;;;;2374074;56;21519;-51
2022/12/11 10:15:57;;;;;;;27.65;14.27;;;0.60;69.70;;;;;;2373146;56;21092;-53
2022/12/11 10:18:26;;;;;;;27.90;13.50;;;0.70;69.60;;;;;;2372823;56;21120;-51
2022/12/11 10:20:56;;;;;;;27.58;14.60;;;0.70;69.60;;;;;;2373162;56;21123;-52
2022/12/11 10:23:28;;;;;;;28.02;14.00;;;0.70;69.70;;;;;;2374223;56;21496;-48
2022/12/11 10:26:05;;;;;;;26.10;13.68;;;0.80;69.50;;;;;;2374775;56;21022;-48
2022/12/11 10:28:33;;;;;;;29.92;14.07;;;0.80;69.20;;;;;;2375334;56;21080;-49
2022/12/11 10:31:09;;;;;;;26.33;13.68;;;0.80;69.00;;;;;;2374655;56;21012;-48
2022/12/11 10:33:45;;;;;;;30.12;13.20;;;0.90;69.10;;;;;;2374856;56;21016;-49
2022/12/11 10:36:18;;;;;;;27.98;13.75;;;0.90;69.30;;;;;;2373766;56;21142;-50
2022/12/11 10:38:46;;;;;;;27.05;14.07;;;0.90;69.40;;;;;;2373547;56;21659;-51
2022/12/11 10:41:17;;;;;;;28.08;13.62;;;0.90;69.50;;;;;;2371173;56;22422;-50
2022/12/11 10:43:46;;;;;;;26.20;12.60;;;0.90;69.60;;;;;;2372471;56;21069;-48
2022/12/11 10:46:16;;;;;;;26.17;13.38;;;1.00;69.70;;;;;;2372653;56;21096;-51
2022/12/11 10:48:49;;;;;;;29.30;13.45;;;1.00;69.90;;;;;;2372623;56;21678;-52
2022/12/11 10:51:16;;;;;;;26.60;14.05;;;1.00;69.70;;;;;;2374247;56;21040;-49
2022/12/11 10:53:48;;;;;;;27.65;13.68;;;1.10;69.70;;;;;;2374470;56;21587;-49
2022/12/11 10:56:23;;;;;;;24.77;12.52;;;1.10;69.50;;;;;;2374708;56;21543;-53
2022/12/11 10:58:52;;;;;;;25.98;13.18;;;1.10;69.60;;;;;;2373765;56;21055;-51
2022/12/11 11:01:22;;;;;;;32.13;14.65;;;1.20;69.40;;;;;;2373741;56;21532;-47
2022/12/11 11:03:56;;;;;;;28.52;14.02;;;1.20;69.30;;;;;;2372691;56;21103;-48
2022/12/11 11:06:25;;;;;;;29.33;13.95;;;1.20;69.10;;;;;;2372726;56;21631;-47
2022/12/11 11:08:54;;;;;;;28.83;14.35;;;1.20;69.00;;;;;;2373312;56;21646;-49
2022/12/11 11:11:25;;;;;;;31.23;14.93;;;1.20;69.00;;;;;;2372231;56;21028;-47
2022/12/11 11:14:03;;;;;;;25.45;13.38;;;1.30;69.00;;;;;;2373214;56;21552;-48
2022/12/11 11:16:30;;;;;;;29.08;13.70;;;1.30;68.70;;;;;;2373420;56;21674;-48
2022/12/11 11:18:58;;;;;;;30.45;14.85;;;1.30;69.00;;;;;;2372706;56;21124;-51
2022/12/11 11:21:28;;;;;;;31.40;14.25;;;1.30;67.80;;;;;;2373744;56;21049;-51
2022/12/11 11:23:56;;;;;;;32.53;14.65;;;1.40;67.40;;;;;;2371171;56;21096;-50
2022/12/11 11:26:23;;;;;;;28.62;14.52;;;1.40;67.20;;;;;;2373044;56;21924;-50
2022/12/11 11:28:53;;;;;;;26.95;13.35;;;1.40;67.20;;;;;;2373385;56;21540;-50
2022/12/11 11:31:29;;;;;;;32.03;14.95;;;1.40;67.40;;;;;;2373466;56;21663;-52
2022/12/11 11:33:58;;;;;;;28.80;13.82;;;1.40;67.60;;;;;;2372715;56;21633;-50
2022/12/11 11:36:28;;;;;;;31.20;13.73;;;1.40;67.60;;;;;;2373504;56;21611;-53
2022/12/11 11:39:24;;;;;;;29.98;14.85;;;1.40;67.80;;;;;;2373157;56;21713;-50
2022/12/11 11:41:59;;;;;;;29.17;13.80;;;1.50;67.90;;;;;;2372935;56;21539;-53
2022/12/11 11:44:32;;;;;;;25.58;13.10;;;1.50;68.00;;;;;;2374594;56;22009;-51
2022/12/11 11:47:03;;;;;;;24.12;12.63;;;1.50;68.20;;;;;;2373152;56;21179;-54
2022/12/11 11:49:52;;;;;;;25.95;12.40;;;1.50;68.40;;;;;;2373580;56;21036;-52
2022/12/11 11:52:25;;;;;;;26.85;12.15;;;1.60;68.60;;;;;;2372963;56;21120;-50
2022/12/11 11:55:04;;;;;;;29.70;13.95;;;1.70;68.70;;;;;;2372953;56;21119;-53
2022/12/11 11:57:44;;;;;;;23.42;11.40;;;1.70;68.60;;;;;;2372273;56;21069;-54
2022/12/11 12:00:19;;;;;;;22.42;12.20;;;1.80;68.40;;;;;;2372170;56;21619;-53
2022/12/11 12:02:47;;;;;;;23.10;11.65;;;1.90;68.50;;;;;;2373970;56;21108;-56
2022/12/11 12:05:19;;;;;;;25.45;11.93;;;2.00;68.60;;;;;;2374816;56;21095;-55
2022/12/11 12:07:52;;;;;;;29.70;12.55;;;2.00;68.40;;;;;;2374659;56;21167;-57
2022/12/11 12:10:25;;;;;;;23.87;11.77;;;2.10;68.40;;;;;;2374483;56;21123;-55
2022/12/11 12:13:00;;;;;;;25.42;12.82;;;2.10;68.20;;;;;;2373204;56;21119;-54
2022/12/11 12:15:39;;;;;;;26.30;12.73;;;2.20;68.10;;;;;;2369341;56;21064;-54
2022/12/11 12:18:18;;;;;;;23.02;11.38;;;2.20;67.90;;;;;;2372094;56;21024;-49
2022/12/11 12:20:54;;;;;;;21.37;10.68;;;2.20;67.60;;;;;;2370114;56;21631;-55
2022/12/11 12:23:40;;;;;;;21.37;10.63;;;2.30;67.40;;;;;;2371877;56;21520;-53
2022/12/11 12:26:14;;;;;;;25.37;10.65;;;2.30;67.20;;;;;;2372993;56;21061;-53
2022/12/11 12:28:51;;;;;;;17.58;9.07;;;2.40;67.10;;;;;;2374396;56;21041;-53
2022/12/11 12:31:35;;;;;;;17.87;9.82;;;2.40;67.00;;;;;;2373315;56;21087;-52
2022/12/11 12:34:12;;;;;;;15.95;8.90;;;2.50;67.00;;;;;;2373454;56;21547;-55
2022/12/11 12:36:47;;;;;;;19.50;9.13;;;2.50;66.80;;;;;;2373799;56;21557;-55
2022/12/11 12:39:24;;;;;;;20.12;9.70;;;2.60;66.50;;;;;;2370284;56;21567;-51
2022/12/11 12:42:00;;;;;;;20.85;10.43;;;2.60;66.00;;;;;;2372826;56;21563;-54
2022/12/11 12:44:36;;;;;;;16.80;9.93;;;2.70;66.00;;;;;;2373279;56;21559;-54
2022/12/11 12:49:46;;;;;;;17.12;9.45;;;2.70;65.30;;;;;;2299232;58;22658;-52
2022/12/11 12:52:18;;;;;;;18.97;10.13;;;2.80;65.30;;;;;;2292400;58;21092;-52
2022/12/11 12:57:38;;;;;;;19.58;10.73;;;2.90;65.30;;;;;;2559460;54;21014;-49
2022/12/11 13:00:08;;;;;;;14.98;8.95;;;2.90;65.30;;;;;;2318967;58;21037;-53
2022/12/11 13:02:37;;;;;;;15.63;9.20;;;3.00;65.30;;;;;;2318319;58;21080;-53
2022/12/11 13:05:18;;;;;;;17.45;10.45;;;3.00;65.40;;;;;;2317430;58;21061;-52
2022/12/11 13:07:51;;;;;;;16.87;9.50;;;3.00;65.30;;;;;;2317170;58;22198;-51
2022/12/11 13:10:29;;;;;;;16.67;9.75;;;3.10;65.10;;;;;;2317607;58;21050;-51
2022/12/11 13:12:57;;;;;;;25.10;13.00;;;3.10;64.70;;;;;;2316337;57;21129;-52
2022/12/11 13:15:34;;;;;;;17.85;10.25;;;3.10;64.50;;;;;;2317024;58;21538;-52
2022/12/11 13:18:03;;;;;;;15.93;9.32;;;3.00;64.40;;;;;;2316538;58;21687;-51
2022/12/11 13:20:32;;;;;;;21.30;10.38;;;3.00;64.30;;;;;;2318162;58;21600;-52
2022/12/11 13:26:04;;;;;;;19.75;10.43;;;3.00;64.40;;;;;;2354553;57;22628;-52
2022/12/11 13:28:45;;;;;;;19.55;10.85;;;3.00;64.30;;;;;;2346364;57;21049;-51
2022/12/11 13:31:35;;;;;;;23.12;11.35;;;3.00;64.30;;;;;;2345292;57;21661;-48
2022/12/11 13:34:16;;;;;;;26.48;12.50;;;3.00;64.30;;;;;;2360866;56;21214;-52
2022/12/11 13:36:48;;;;;;;23.20;11.50;;;3.00;64.20;;;;;;2373764;56;21597;-52
2022/12/11 13:41:56;;;;;;;24.83;12.98;;;2.90;64.00;;;;;;2354613;57;22090;-49